createdAt,value
2019-01-23T00:02:37.539Z,65.83
2019-01-23T00:05:26.461Z,65.89
2019-01-23T00:08:15.324Z,65.96
2019-01-23T00:11:04.181Z,65.99
2019-01-23T00:13:53.016Z,65.91
2019-01-23T00:16:41.876Z,65.92
2019-01-23T00:22:59.272Z,65.74
2019-01-23T00:25:48.758Z,65.68
2019-01-23T00:28:42.325Z,65.64
2019-01-23T00:31:28.114Z,65.47
2019-01-23T00:34:17.000Z,65.63
2019-01-23T00:37:05.849Z,65.47
2019-01-23T00:39:54.749Z,65.56
2019-01-23T00:42:43.692Z,65.42
2019-01-23T00:45:23.548Z,65.47
2019-01-23T00:48:12.476Z,65.61
2019-01-23T00:51:01.339Z,65.46
2019-01-23T00:53:50.290Z,65.51
2019-01-23T00:56:39.075Z,65.26
2019-01-23T00:59:27.926Z,65.20
2019-01-23T01:02:16.801Z,65.28
2019-01-23T01:05:06.357Z,65.25
2019-01-23T01:07:55.240Z,65.13
2019-01-23T01:10:44.238Z,65.04
2019-01-23T01:13:33.058Z,64.83
2019-01-23T01:16:21.987Z,64.87
2019-01-23T01:19:10.794Z,64.68
2019-01-23T01:21:59.696Z,64.74
2019-01-23T01:24:48.549Z,64.93
2019-01-23T01:27:37.375Z,65.01
2019-01-23T01:30:26.357Z,65.16
2019-01-23T01:33:15.157Z,64.83
2019-01-23T01:36:04.160Z,64.81
2019-01-23T01:38:53.201Z,64.85
2019-01-23T01:41:42.062Z,64.73
2019-01-23T01:44:21.878Z,65.08
2019-01-23T01:47:10.795Z,64.78
2019-01-23T01:49:59.656Z,64.79
2019-01-23T01:52:48.667Z,64.53
2019-01-23T01:55:37.565Z,64.38
2019-01-23T01:58:26.414Z,64.46
2019-01-23T02:01:15.232Z,64.40
2019-01-23T02:04:04.228Z,64.10
2019-01-23T02:06:53.099Z,64.24
2019-01-23T02:12:49.962Z,64.40
2019-01-23T02:15:38.735Z,64.19
2019-01-23T02:18:27.678Z,63.97
2019-01-23T02:21:16.549Z,64.23
2019-01-23T02:24:05.458Z,63.70
2019-01-23T02:26:54.291Z,63.43
2019-01-23T02:29:43.130Z,63.62
2019-01-23T02:32:32.038Z,63.93
2019-01-23T02:35:21.021Z,63.79
2019-01-23T02:38:09.823Z,64.01
2019-01-23T02:40:58.813Z,63.94
2019-01-23T02:43:47.606Z,64.01
2019-01-23T02:46:28.916Z,64.13
2019-01-23T02:49:17.826Z,64.00
2019-01-23T02:52:06.749Z,64.14
2019-01-23T02:54:55.584Z,64.13
2019-01-23T02:57:44.614Z,64.26
2019-01-23T03:00:33.511Z,64.13
2019-01-23T03:03:22.335Z,64.30
2019-01-23T03:09:20.622Z,64.25
2019-01-23T03:12:09.511Z,64.32
2019-01-23T03:15:19.031Z,64.42
2019-01-23T03:18:07.911Z,64.26
2019-01-23T03:20:56.799Z,64.25
2019-01-23T03:23:45.816Z,64.17
2019-01-23T03:26:34.610Z,64.10
2019-01-23T03:29:24.691Z,64.12
2019-01-23T03:32:14.031Z,64.22
2019-01-23T03:35:02.908Z,64.09
2019-01-23T03:37:51.814Z,64.13
2019-01-23T03:40:40.801Z,64.23
2019-01-23T03:43:48.928Z,63.94
2019-01-23T03:46:28.858Z,63.77
2019-01-23T03:49:17.739Z,63.88
2019-01-23T03:52:06.738Z,63.83
2019-01-23T03:54:36.233Z,63.77
2019-01-23T03:57:25.122Z,63.56
2019-01-23T04:00:34.872Z,63.54
2019-01-23T04:03:23.690Z,63.61
2019-01-23T04:06:12.593Z,63.79
2019-01-23T04:09:01.467Z,63.57
2019-01-23T04:11:50.538Z,63.41
2019-01-23T04:14:39.387Z,63.23
2019-01-23T04:17:28.246Z,63.41
2019-01-23T04:20:38.001Z,63.12
2019-01-23T04:23:26.847Z,63.14
2019-01-23T04:26:15.694Z,63.56
2019-01-23T04:29:04.800Z,63.14
2019-01-23T04:31:53.647Z,63.18
2019-01-23T04:34:42.540Z,63.12
2019-01-23T04:37:31.409Z,63.25
2019-01-23T04:40:20.328Z,63.12
2019-01-23T04:43:09.175Z,63.21
2019-01-23T04:45:58.011Z,62.96
2019-01-23T04:48:39.310Z,63.01
2019-01-23T04:51:47.238Z,62.80
2019-01-23T04:54:36.139Z,62.99
2019-01-23T04:57:24.980Z,63.07
2019-01-23T05:03:10.108Z,63.06
2019-01-23T05:05:58.945Z,63.21
2019-01-23T05:08:28.456Z,62.80
2019-01-23T05:11:17.315Z,63.20
2019-01-23T05:14:06.241Z,63.33
2019-01-23T05:16:55.057Z,63.51
2019-01-23T05:19:43.910Z,63.58
2019-01-23T05:22:32.715Z,63.45
2019-01-23T05:25:21.631Z,63.56
2019-01-23T05:28:10.488Z,63.51
2019-01-23T05:30:59.290Z,63.45
2019-01-23T05:33:48.266Z,63.61
2019-01-23T05:36:37.070Z,63.55
2019-01-23T05:39:25.922Z,63.59
2019-01-23T05:42:14.855Z,63.63
2019-01-23T05:47:52.215Z,63.67
2019-01-23T05:50:41.161Z,63.87
2019-01-23T05:53:30.021Z,63.94
2019-01-23T05:56:18.846Z,64.08
2019-01-23T05:59:07.640Z,63.90
2019-01-23T06:01:56.488Z,63.71
2019-01-23T06:04:38.212Z,63.88
2019-01-23T06:07:27.054Z,63.86
2019-01-23T06:10:15.998Z,64.10
2019-01-23T06:13:04.885Z,64.03
2019-01-23T06:15:53.749Z,64.19
2019-01-23T06:18:42.587Z,64.11
2019-01-23T06:21:31.452Z,63.90
2019-01-23T06:24:20.294Z,63.69
2019-01-23T06:26:49.808Z,63.93
2019-01-23T06:29:38.707Z,63.78
2019-01-23T06:32:27.552Z,63.84
2019-01-23T06:35:16.965Z,64.01
2019-01-23T06:38:05.886Z,63.89
2019-01-23T06:40:54.795Z,63.64
2019-01-23T06:43:43.678Z,63.52
2019-01-23T06:46:32.507Z,63.72
2019-01-23T06:49:21.358Z,63.87
2019-01-23T06:52:10.256Z,63.25
2019-01-23T06:54:59.077Z,62.94
2019-01-23T06:57:48.010Z,63.38
2019-01-23T07:00:30.158Z,63.19
2019-01-23T07:03:19.019Z,63.26
2019-01-23T07:06:07.823Z,63.20
2019-01-23T07:08:56.665Z,63.05
2019-01-23T07:11:45.528Z,63.22
2019-01-23T07:14:34.409Z,63.16
2019-01-23T07:17:23.293Z,63.10
2019-01-23T07:20:33.056Z,62.76
2019-01-23T07:26:21.104Z,62.85
2019-01-23T07:29:09.997Z,62.66
2019-01-23T07:31:58.847Z,62.58
2019-01-23T07:34:47.711Z,62.61
2019-01-23T07:37:36.537Z,62.53
2019-01-23T07:40:25.424Z,62.52
2019-01-23T07:43:14.261Z,62.47
2019-01-23T07:46:03.097Z,62.74
2019-01-23T07:48:32.613Z,62.72
2019-01-23T07:51:02.151Z,62.70
2019-01-23T07:53:51.333Z,62.79
2019-01-23T07:56:41.635Z,62.88
2019-01-23T07:59:23.021Z,62.85
2019-01-23T08:02:11.923Z,62.84
2019-01-23T08:05:00.774Z,62.72
2019-01-23T08:07:49.856Z,62.86
2019-01-23T08:10:38.691Z,62.90
2019-01-23T08:13:27.688Z,62.87
2019-01-23T08:16:16.510Z,62.73
2019-01-23T08:19:05.431Z,63.04
2019-01-23T08:21:54.207Z,62.92
2019-01-23T08:24:43.064Z,63.03
2019-01-23T08:27:31.987Z,63.20
2019-01-23T08:30:40.975Z,63.14
2019-01-23T08:33:30.768Z,63.29
2019-01-23T08:36:19.698Z,63.54
2019-01-23T08:39:08.679Z,63.63
2019-01-23T08:41:57.570Z,63.65
2019-01-23T08:44:46.358Z,63.71
2019-01-23T08:47:35.189Z,63.79
2019-01-23T08:50:44.908Z,63.74
2019-01-23T08:53:33.831Z,63.64
2019-01-23T08:56:22.655Z,63.52
2019-01-23T08:59:11.520Z,63.47
2019-01-23T09:02:00.420Z,63.14
2019-01-23T09:04:49.275Z,63.36
2019-01-23T09:07:38.170Z,63.03
2019-01-23T09:10:47.893Z,62.93
2019-01-23T09:13:36.737Z,62.66
2019-01-23T09:16:25.570Z,62.08
2019-01-23T09:19:14.470Z,61.97
2019-01-23T09:22:03.271Z,61.97
2019-01-23T09:24:52.143Z,61.96
2019-01-23T09:27:40.994Z,61.61
2019-01-23T09:30:52.697Z,61.90
2019-01-23T09:34:20.118Z,61.51
2019-01-23T09:37:29.937Z,61.69
2019-01-23T09:40:39.688Z,61.53
2019-01-23T09:44:07.218Z,61.41
2019-01-23T09:47:16.953Z,61.45
2019-01-23T09:50:44.541Z,61.41
2019-01-23T09:53:54.835Z,60.96
2019-01-23T09:57:05.757Z,61.44
2019-01-23T09:59:47.067Z,61.40
2019-01-23T10:02:16.542Z,61.00
2019-01-23T10:05:26.316Z,60.58
2019-01-23T10:08:15.153Z,60.49
2019-01-23T10:11:04.026Z,60.89
2019-01-23T10:13:52.909Z,60.33
2019-01-23T10:16:41.756Z,60.34
2019-01-23T10:19:30.635Z,60.40
2019-01-23T10:22:19.573Z,59.91
2019-01-23T10:25:08.492Z,60.55
2019-01-23T10:27:57.326Z,60.16
2019-01-23T10:30:46.253Z,60.01
2019-01-23T10:33:35.152Z,59.98
2019-01-23T10:36:24.053Z,59.65
2019-01-23T10:39:12.965Z,58.20
2019-01-23T10:42:01.981Z,59.15
2019-01-23T10:44:50.830Z,58.88
2019-01-23T10:47:39.678Z,58.93
2019-01-23T10:50:21.229Z,58.36
2019-01-23T10:53:10.277Z,58.42
2019-01-23T10:55:39.924Z,57.79
2019-01-23T10:58:28.821Z,57.72
2019-01-23T11:01:17.742Z,57.52
2019-01-23T11:04:06.691Z,57.82
2019-01-23T11:06:55.576Z,58.45
2019-01-23T11:09:44.385Z,58.08
2019-01-23T11:12:33.300Z,57.96
2019-01-23T11:15:22.273Z,57.68
2019-01-23T11:18:11.129Z,58.25
2019-01-23T11:21:00.027Z,57.08
2019-01-23T11:23:48.818Z,56.38
2019-01-23T11:26:37.811Z,56.27
2019-01-23T11:29:26.616Z,56.54
2019-01-23T11:32:15.561Z,56.23
2019-01-23T11:38:20.222Z,56.41
2019-01-23T11:41:09.118Z,56.40
2019-01-23T11:43:58.032Z,55.83
2019-01-23T11:46:40.150Z,56.04
2019-01-23T11:49:29.864Z,55.59
2019-01-23T11:52:38.068Z,55.91
2019-01-23T11:55:30.548Z,55.85
2019-01-23T12:01:57.330Z,55.39
2019-01-23T12:05:19.100Z,56.01
2019-01-23T12:07:57.677Z,55.90
2019-01-23T12:10:46.584Z,55.17
2019-01-23T12:13:35.575Z,54.89
2019-01-23T12:16:24.434Z,54.57
2019-01-23T12:19:13.334Z,54.81
2019-01-23T12:22:02.167Z,54.69
2019-01-23T12:24:51.028Z,54.49
2019-01-23T12:27:39.962Z,54.26
2019-01-23T12:30:49.742Z,54.17
2019-01-23T12:33:38.684Z,54.24
2019-01-23T12:36:27.533Z,54.27
2019-01-23T12:39:16.474Z,53.78
2019-01-23T12:42:05.427Z,53.29
2019-01-23T12:44:54.432Z,53.69
2019-01-23T12:47:43.624Z,54.14
2019-01-23T12:50:32.882Z,54.65
2019-01-23T12:53:14.474Z,54.93
2019-01-23T12:56:03.379Z,54.52
2019-01-23T12:58:52.307Z,54.26
2019-01-23T13:01:42.106Z,53.78
2019-01-23T13:04:31.829Z,53.53
2019-01-23T13:07:20.643Z,53.01
2019-01-23T13:10:30.420Z,52.50
2019-01-23T13:13:19.362Z,52.54
2019-01-23T13:16:08.227Z,52.46
2019-01-23T13:18:57.115Z,53.89
2019-01-23T13:21:45.950Z,53.68
2019-01-23T13:24:34.742Z,53.67
2019-01-23T13:27:23.739Z,54.07
2019-01-23T13:30:33.478Z,54.01
2019-01-23T13:33:34.575Z,53.92
2019-01-23T13:36:13.019Z,53.49
2019-01-23T13:39:01.923Z,52.59
2019-01-23T13:41:50.789Z,53.50
2019-01-23T13:44:39.616Z,52.66
2019-01-23T13:47:28.542Z,52.99
2019-01-23T13:50:11.349Z,53.20
2019-01-23T13:53:00.278Z,52.87
2019-01-23T13:55:49.145Z,52.94
2019-01-23T13:58:41.879Z,52.82
2019-01-23T14:01:28.603Z,53.10
2019-01-23T14:04:17.520Z,52.89
2019-01-23T14:07:06.434Z,53.09
2019-01-23T14:09:55.257Z,52.88
2019-01-23T14:12:44.248Z,52.85
2019-01-23T14:15:53.981Z,53.05
2019-01-23T14:18:42.813Z,53.22
2019-01-23T14:21:31.622Z,52.71
2019-01-23T14:24:20.482Z,52.87
2019-01-23T14:27:09.301Z,52.79
2019-01-23T14:29:58.229Z,53.39
2019-01-23T14:32:47.103Z,53.16
2019-01-23T14:38:51.867Z,53.49
2019-01-23T14:41:40.716Z,52.30
2019-01-23T14:44:29.562Z,52.46
2019-01-23T14:47:18.459Z,53.37
2019-01-23T14:50:28.217Z,53.53
2019-01-23T14:53:17.114Z,53.88
2019-01-23T14:56:05.965Z,53.96
2019-01-23T14:58:54.821Z,53.90
2019-01-23T15:01:43.708Z,54.02
2019-01-23T15:04:32.609Z,52.92
2019-01-23T15:07:21.490Z,53.27
2019-01-23T15:10:31.315Z,53.31
2019-01-23T15:13:20.217Z,53.43
2019-01-23T15:16:09.137Z,53.11
2019-01-23T15:18:57.962Z,53.19
2019-01-23T15:21:46.820Z,53.28
2019-01-23T15:24:35.626Z,53.59
2019-01-23T15:27:24.472Z,53.23
2019-01-23T15:30:34.297Z,53.13
2019-01-23T15:36:22.311Z,53.83
2019-01-23T15:39:11.124Z,53.98
2019-01-23T15:42:00.016Z,53.84
2019-01-23T15:44:48.826Z,54.29
2019-01-23T15:47:37.729Z,54.15
2019-01-23T15:50:22.682Z,54.31
2019-01-23T15:53:11.542Z,54.75
2019-01-23T15:56:00.438Z,54.95
2019-01-23T15:58:49.274Z,54.98
2019-01-23T16:01:38.201Z,54.59
2019-01-23T16:04:27.058Z,54.43
2019-01-23T16:07:15.915Z,54.13
2019-01-23T16:10:25.677Z,54.67
2019-01-23T16:13:14.493Z,54.26
2019-01-23T16:16:03.406Z,54.64
2019-01-23T16:18:52.259Z,54.10
2019-01-23T16:21:45.593Z,54.66
2019-01-23T16:24:31.734Z,54.79
2019-01-23T16:27:20.610Z,54.60
2019-01-23T16:30:30.379Z,54.52
2019-01-23T16:33:19.292Z,54.51
2019-01-23T16:36:08.222Z,54.75
2019-01-23T16:38:57.053Z,54.92
2019-01-23T16:41:45.859Z,54.78
2019-01-23T16:44:34.750Z,54.63
2019-01-23T16:47:24.002Z,54.39
2019-01-23T16:50:35.052Z,54.27
2019-01-23T16:53:16.371Z,54.79
2019-01-23T16:56:05.392Z,54.70
2019-01-23T16:58:54.247Z,54.92
2019-01-23T17:01:43.121Z,54.65
2019-01-23T17:04:31.997Z,54.68
2019-01-23T17:07:20.788Z,55.29
2019-01-23T17:10:29.149Z,54.93
2019-01-23T17:13:18.113Z,54.69
2019-01-23T17:16:07.040Z,55.09
2019-01-23T17:18:55.917Z,55.32
2019-01-23T17:21:44.774Z,54.56
2019-01-23T17:24:33.692Z,55.36
2019-01-23T17:27:41.837Z,55.12
2019-01-23T17:30:30.673Z,55.10
2019-01-23T17:33:19.624Z,55.24
2019-01-23T17:36:08.549Z,55.03
2019-01-23T17:38:57.480Z,54.95
2019-01-23T17:41:46.394Z,55.23
2019-01-23T17:44:35.207Z,54.90
2019-01-23T17:53:28.765Z,55.03
2019-01-23T17:56:17.590Z,55.54
2019-01-23T17:59:06.905Z,55.05
2019-01-23T18:01:55.928Z,55.08
2019-01-23T18:04:44.766Z,55.23
2019-01-23T18:07:33.646Z,55.27
2019-01-23T18:10:22.624Z,55.29
2019-01-23T18:13:11.520Z,54.83
2019-01-23T18:16:21.274Z,55.34
2019-01-23T18:19:10.096Z,55.71
2019-01-23T18:21:58.943Z,55.54
2019-01-23T18:24:47.828Z,55.34
2019-01-23T18:27:36.844Z,55.85
2019-01-23T18:30:46.576Z,55.49
2019-01-23T18:33:56.317Z,55.95
2019-01-23T18:37:06.072Z,55.93
2019-01-23T18:40:33.618Z,55.61
2019-01-23T18:44:01.175Z,55.94
2019-01-23T18:47:10.995Z,55.30
2019-01-23T18:50:20.796Z,55.83
2019-01-23T18:53:10.512Z,55.79
2019-01-23T18:55:53.213Z,56.00
2019-01-23T18:58:42.078Z,55.42
2019-01-23T19:01:31.050Z,55.84
2019-01-23T19:04:19.961Z,56.63
2019-01-23T19:07:08.982Z,56.49
2019-01-23T19:09:57.830Z,56.83
2019-01-23T19:12:46.664Z,56.00
2019-01-23T19:15:35.652Z,55.99
2019-01-23T19:18:24.511Z,55.00
2019-01-23T19:21:13.522Z,55.87
2019-01-23T19:24:02.366Z,55.74
2019-01-23T19:26:51.214Z,55.01
2019-01-23T19:29:40.156Z,55.38
2019-01-23T19:32:29.138Z,55.51
2019-01-23T19:35:18.006Z,56.24
2019-01-23T19:38:06.973Z,56.26
2019-01-23T19:40:55.811Z,56.40
2019-01-23T19:43:44.728Z,56.58
2019-01-23T19:46:33.620Z,56.86
2019-01-23T19:49:22.553Z,57.88
2019-01-23T19:52:04.207Z,58.03
2019-01-23T19:54:53.027Z,58.10
2019-01-23T19:57:41.873Z,58.29
2019-01-23T20:00:30.779Z,57.96
2019-01-23T20:03:20.645Z,57.91
2019-01-23T20:06:10.351Z,58.18
2019-01-23T20:08:59.165Z,58.45
2019-01-23T20:11:48.093Z,58.33
2019-01-23T20:14:37.048Z,58.59
2019-01-23T20:17:25.968Z,57.97
2019-01-23T20:20:35.706Z,57.90
2019-01-23T20:23:17.124Z,57.81
2019-01-23T20:26:05.995Z,58.30
2019-01-23T20:28:54.936Z,57.92
2019-01-23T20:31:43.765Z,57.96
2019-01-23T20:34:32.673Z,57.88
2019-01-23T20:37:23.503Z,58.43
2019-01-23T20:43:27.900Z,58.80
2019-01-23T20:46:16.716Z,58.47
2019-01-23T20:49:05.617Z,58.37
2019-01-23T20:51:54.568Z,58.15
2019-01-23T20:54:36.378Z,58.43
2019-01-23T20:57:25.201Z,58.63
2019-01-23T21:00:33.720Z,58.57
2019-01-23T21:03:37.237Z,58.23
2019-01-23T21:06:13.249Z,58.69
2019-01-23T21:09:02.287Z,58.98
2019-01-23T21:11:51.186Z,58.75
2019-01-23T21:14:40.043Z,58.69
2019-01-23T21:17:28.920Z,59.03
2019-01-23T21:20:18.031Z,59.48
2019-01-23T21:23:06.951Z,59.30
2019-01-23T21:25:55.841Z,59.24
2019-01-23T21:28:44.746Z,59.28
2019-01-23T21:31:33.619Z,59.32
2019-01-23T21:34:22.451Z,59.18
2019-01-23T21:37:11.327Z,59.38
2019-01-23T21:40:00.230Z,59.54
2019-01-23T21:42:49.101Z,59.63
2019-01-23T21:45:38.037Z,58.98
2019-01-23T21:48:26.878Z,58.55
2019-01-23T21:51:15.727Z,58.26
2019-01-23T21:57:33.037Z,58.23
2019-01-23T22:00:42.279Z,58.70
2019-01-23T22:03:31.143Z,59.07
2019-01-23T22:06:20.082Z,59.36
2019-01-23T22:09:09.243Z,59.53
2019-01-23T22:11:58.080Z,59.42
2019-01-23T22:14:46.920Z,58.98
2019-01-23T22:17:35.778Z,59.67
2019-01-23T22:20:24.722Z,59.61
2019-01-23T22:23:13.629Z,59.48
2019-01-23T22:26:02.512Z,59.29
2019-01-23T22:28:51.340Z,59.76
2019-01-23T22:31:40.158Z,59.90
2019-01-23T22:34:28.657Z,59.89
2019-01-23T22:37:17.561Z,59.84
2019-01-23T22:40:27.258Z,59.25
2019-01-23T22:43:16.108Z,59.28
2019-01-23T22:46:05.099Z,59.38
2019-01-23T22:48:53.940Z,59.26
2019-01-23T22:51:42.788Z,57.21
2019-01-23T22:54:24.933Z,57.14
2019-01-23T22:57:13.729Z,57.55
2019-01-23T23:00:02.722Z,57.53
2019-01-23T23:02:51.708Z,56.52
2019-01-23T23:05:40.670Z,56.70
2019-01-23T23:08:29.677Z,57.21
2019-01-23T23:11:18.475Z,56.91
2019-01-23T23:14:07.433Z,56.35
2019-01-23T23:16:56.284Z,56.42
2019-01-23T23:19:45.152Z,56.42
2019-01-23T23:22:34.000Z,57.03
2019-01-23T23:25:22.789Z,56.38
2019-01-23T23:28:11.713Z,56.08
2019-01-23T23:31:00.630Z,55.82
2019-01-23T23:33:49.534Z,56.10
2019-01-23T23:36:38.463Z,56.74
2019-01-23T23:39:27.350Z,55.87
2019-01-23T23:42:16.179Z,56.05
2019-01-23T23:45:26.031Z,56.04
2019-01-23T23:48:14.879Z,56.17
2019-01-23T23:51:03.693Z,56.51
2019-01-23T23:53:52.543Z,56.45
2019-01-23T23:56:34.369Z,56.34
2019-01-23T23:59:23.240Z,55.97
